Time;durP1;ratioP1;P1;durP2;ratioP2;P2;SDS_P1;SDS_P2;PMS_P1;PMS_P2;Temp;Humidity;BMP_temperature;BMP_pressure;BME280_temperature;BME280_humidity;BME280_pressure;Samples;Min_cycle;Max_cycle;Signal;HPM_P1;HPM_P2
2022/05/11 00:01:42;;;;;;;10.03;6.57;;;13.00;99.90;;;;;;5043532;28;20190;-85
2022/05/11 00:04:10;;;;;;;11.13;6.13;;;13.00;99.90;;;;;;5043108;28;20290;-85
2022/05/11 00:06:37;;;;;;;14.53;6.40;;;13.00;99.90;;;;;;5043744;28;20584;-90
2022/05/11 00:09:05;;;;;;;14.57;6.73;;;13.00;99.90;;;;;;5043026;28;20626;-87
2022/05/11 00:11:31;;;;;;;15.93;5.27;;;13.10;99.90;;;;;;5042830;28;20345;-85
2022/05/11 00:13:57;;;;;;;16.03;7.70;;;13.10;99.90;;;;;;5044574;28;20189;-86
2022/05/11 00:16:25;;;;;;;13.47;6.50;;;13.10;99.90;;;;;;5044210;28;20222;-88
2022/05/11 00:18:51;;;;;;;14.27;6.67;;;13.10;99.90;;;;;;5026424;28;20287;-85
2022/05/11 00:21:17;;;;;;;13.10;7.43;;;13.10;99.90;;;;;;5025535;28;20953;-86
2022/05/11 00:23:43;;;;;;;16.80;6.50;;;13.00;99.90;;;;;;5042535;28;20221;-87
2022/05/11 00:26:09;;;;;;;16.40;6.77;;;13.10;99.90;;;;;;5043117;28;20193;-86
2022/05/11 00:28:35;;;;;;;9.97;6.53;;;13.10;99.90;;;;;;5028315;28;20199;-88
2022/05/11 00:31:01;;;;;;;15.67;7.10;;;13.10;99.90;;;;;;5046859;28;20226;-86
2022/05/11 00:33:27;;;;;;;19.03;7.80;;;13.10;99.90;;;;;;5030287;28;20682;-87
2022/05/11 00:35:53;;;;;;;16.50;8.23;;;13.10;99.90;;;;;;5046480;28;20209;-85
2022/05/11 00:38:22;;;;;;;16.90;8.50;;;13.10;99.90;;;;;;5029174;28;20728;-86
2022/05/11 00:40:54;;;;;;;11.40;7.10;;;13.10;99.90;;;;;;5046499;28;20214;-87
2022/05/11 00:43:29;;;;;;;13.37;7.33;;;13.10;99.90;;;;;;5047683;28;20226;-88
2022/05/11 00:46:21;;;;;;;16.67;8.30;;;13.10;99.90;;;;;;5046258;28;20205;-87
2022/05/11 00:51:41;;;;;;;10.83;6.83;;;13.00;99.90;;;;;;5046828;28;20376;-87
2022/05/11 00:54:07;;;;;;;11.40;8.10;;;13.00;99.90;;;;;;5047277;28;20299;-87
2022/05/11 00:56:38;;;;;;;27.63;8.87;;;13.00;99.90;;;;;;5046421;28;20686;-87
2022/05/11 00:59:11;;;;;;;12.80;6.60;;;13.00;99.90;;;;;;5045536;28;20647;-86
2022/05/11 01:01:39;;;;;;;23.97;7.47;;;13.00;99.90;;;;;;5046281;28;20185;-87
2022/05/11 01:04:12;;;;;;;20.97;6.87;;;13.00;99.90;;;;;;5045984;28;20300;-86
2022/05/11 01:06:40;;;;;;;21.77;7.53;;;13.10;99.90;;;;;;5046123;28;20289;-86
2022/05/11 01:09:06;;;;;;;14.63;8.40;;;13.10;99.90;;;;;;5047234;28;20221;-87
2022/05/11 01:11:40;;;;;;;17.33;7.27;;;13.10;99.90;;;;;;5029419;28;20221;-87
2022/05/11 01:14:10;;;;;;;14.77;7.57;;;13.10;99.90;;;;;;5047100;28;20181;-86
2022/05/11 01:16:36;;;;;;;15.03;7.10;;;13.10;99.90;;;;;;5045604;28;20643;-91
2022/05/11 01:19:04;;;;;;;14.50;7.43;;;13.10;99.90;;;;;;5046026;28;20205;-86
2022/05/11 01:21:49;;;;;;;8.87;5.03;;;13.10;99.90;;;;;;5045969;28;20918;-85
2022/05/11 01:24:44;;;;;;;10.33;6.13;;;13.10;99.90;;;;;;5045712;28;20259;-86
2022/05/11 01:27:36;;;;;;;12.50;6.43;;;13.10;99.90;;;;;;5047041;28;20222;-86
2022/05/11 01:30:12;;;;;;;10.63;6.90;;;13.10;99.90;;;;;;5045424;28;20237;-84
2022/05/11 01:32:43;;;;;;;13.90;6.93;;;13.10;99.90;;;;;;5046531;28;20224;-88
2022/05/11 01:35:27;;;;;;;16.60;6.93;;;13.10;99.90;;;;;;5045149;28;20293;-86
2022/05/11 01:38:20;;;;;;;10.43;6.40;;;13.10;99.90;;;;;;5045570;28;20185;-86
2022/05/11 01:40:47;;;;;;;12.37;7.13;;;13.10;99.90;;;;;;5009643;28;20690;-86
2022/05/11 01:43:36;;;;;;;14.67;7.63;;;13.00;99.90;;;;;;5045332;28;20225;-87
2022/05/11 01:46:03;;;;;;;9.97;6.90;;;13.00;99.90;;;;;;5044319;28;20738;-86
2022/05/11 01:48:29;;;;;;;9.07;5.60;;;13.00;99.90;;;;;;5046340;28;20213;-87
2022/05/11 01:50:55;;;;;;;15.70;7.87;;;13.10;99.90;;;;;;5046204;28;20221;-85
2022/05/11 01:53:21;;;;;;;14.77;7.57;;;13.00;99.90;;;;;;5045988;28;20575;-87
2022/05/11 01:55:47;;;;;;;13.37;6.00;;;13.10;99.90;;;;;;5028518;28;20205;-85
2022/05/11 01:58:14;;;;;;;11.23;6.93;;;13.10;99.90;;;;;;5028778;28;20222;-85
2022/05/11 02:00:42;;;;;;;14.70;6.73;;;13.10;99.90;;;;;;5036264;28;20261;-91
2022/05/11 02:03:08;;;;;;;12.60;6.63;;;13.10;99.90;;;;;;5044705;28;20214;-85
2022/05/11 02:08:19;;;;;;;19.30;6.30;;;13.00;99.90;;;;;;5045283;28;20186;-86
2022/05/11 02:10:45;;;;;;;17.37;5.97;;;13.00;99.90;;;;;;5046532;28;20222;-85
2022/05/11 02:13:11;;;;;;;11.10;6.77;;;13.00;99.90;;;;;;5044568;28;20317;-85
2022/05/11 02:15:37;;;;;;;17.60;7.03;;;13.00;99.90;;;;;;5027574;28;20351;-84
2022/05/11 02:18:04;;;;;;;18.80;8.10;;;13.00;99.90;;;;;;5044636;28;20258;-87
2022/05/11 02:20:30;;;;;;;12.67;7.10;;;13.00;99.90;;;;;;5043369;28;20771;-85
2022/05/11 02:22:56;;;;;;;14.57;5.97;;;13.00;99.90;;;;;;5027086;28;20434;-85
2022/05/11 02:25:21;;;;;;;13.93;7.10;;;12.90;99.90;;;;;;5044413;28;20272;-87
2022/05/11 02:27:50;;;;;;;11.43;6.67;;;13.00;99.90;;;;;;5045571;28;20221;-87
2022/05/11 02:30:20;;;;;;;18.40;8.40;;;12.90;99.90;;;;;;5045875;28;20229;-87
2022/05/11 02:32:46;;;;;;;22.83;7.37;;;12.90;99.90;;;;;;5044781;28;20230;-87
2022/05/11 02:35:12;;;;;;;14.57;7.43;;;12.90;99.90;;;;;;5028311;28;20293;-85
2022/05/11 02:37:45;;;;;;;19.43;6.97;;;13.00;99.90;;;;;;5028130;28;20640;-86
2022/05/11 02:40:13;;;;;;;14.00;7.90;;;13.00;99.90;;;;;;5043804;28;20225;-85
2022/05/11 02:42:39;;;;;;;6.33;4.37;;;13.00;99.90;;;;;;5059747;28;20233;-85
2022/05/11 02:45:06;;;;;;;16.27;7.40;;;13.00;99.90;;;;;;5043998;28;20260;-88
2022/05/11 02:47:32;;;;;;;17.47;7.57;;;13.00;99.90;;;;;;5043846;28;20214;-90
2022/05/11 02:49:58;;;;;;;11.67;7.00;;;13.00;99.90;;;;;;5027390;28;20263;-88
2022/05/11 02:52:24;;;;;;;11.93;7.27;;;13.00;99.90;;;;;;5043035;28;20225;-86
2022/05/11 02:54:49;;;;;;;17.70;7.07;;;13.00;99.90;;;;;;5043028;28;20320;-86
2022/05/11 02:57:19;;;;;;;12.23;6.13;;;13.00;99.90;;;;;;5043742;28;20291;-89
2022/05/11 02:59:45;;;;;;;12.90;6.43;;;13.00;99.90;;;;;;5041893;28;20217;-91
2022/05/11 03:02:11;;;;;;;8.33;5.27;;;13.00;99.90;;;;;;5041932;28;20186;-86
2022/05/11 03:04:37;;;;;;;9.23;5.67;;;13.00;99.90;;;;;;5027834;28;20188;-86
2022/05/11 03:07:03;;;;;;;15.03;6.97;;;13.00;99.90;;;;;;5043959;28;20352;-85
2022/05/11 03:09:28;;;;;;;13.97;5.70;;;13.00;99.90;;;;;;5026365;28;20218;-85
2022/05/11 03:11:54;;;;;;;11.17;5.57;;;13.00;99.90;;;;;;5026995;28;20686;-88
2022/05/11 03:14:20;;;;;;;17.33;5.00;;;13.00;99.90;;;;;;5044125;28;20244;-84
2022/05/11 03:16:46;;;;;;;6.43;4.17;;;13.00;99.90;;;;;;5027085;28;20541;-86
2022/05/11 03:19:11;;;;;;;8.97;4.67;;;13.00;99.90;;;;;;5043688;28;20681;-87
2022/05/11 03:21:37;;;;;;;16.33;6.93;;;13.00;99.90;;;;;;5026618;28;20221;-87
2022/05/11 03:24:03;;;;;;;13.43;5.43;;;13.00;99.90;;;;;;5025542;28;20241;-88
2022/05/11 03:26:29;;;;;;;11.40;4.93;;;13.00;99.90;;;;;;5043115;28;20221;-84
2022/05/11 03:28:56;;;;;;;11.00;4.37;;;13.00;99.90;;;;;;5043823;28;20939;-85
2022/05/11 03:31:22;;;;;;;8.73;5.23;;;13.00;99.90;;;;;;5042858;28;20229;-88
2022/05/11 03:36:32;;;;;;;10.03;5.00;;;13.00;99.90;;;;;;5029141;28;20549;-86
2022/05/11 03:38:58;;;;;;;9.47;4.77;;;13.00;99.90;;;;;;5042620;28;20237;-86
2022/05/11 03:41:24;;;;;;;7.30;4.37;;;13.00;99.90;;;;;;5042963;28;20228;-86
2022/05/11 03:43:50;;;;;;;7.40;3.93;;;13.00;99.90;;;;;;5026665;28;20186;-90
2022/05/11 03:46:15;;;;;;;9.00;4.83;;;13.00;99.90;;;;;;5026495;28;20263;-84
2022/05/11 03:48:41;;;;;;;6.27;4.50;;;13.00;99.90;;;;;;5043150;28;20261;-87
2022/05/11 03:51:07;;;;;;;12.00;4.97;;;13.00;99.90;;;;;;5026342;28;20237;-86
2022/05/11 03:53:36;;;;;;;11.47;4.83;;;13.00;99.90;;;;;;5044011;28;20232;-85
2022/05/11 03:56:02;;;;;;;15.93;4.37;;;13.00;99.90;;;;;;5059190;28;20710;-85
2022/05/11 03:58:27;;;;;;;6.30;5.27;;;13.10;99.90;;;;;;5026976;28;20284;-86
2022/05/11 04:00:53;;;;;;;9.33;4.50;;;13.10;99.90;;;;;;5026667;28;20221;-88
2022/05/11 04:03:19;;;;;;;13.73;5.47;;;13.10;99.90;;;;;;5027150;28;20569;-86
2022/05/11 04:05:44;;;;;;;7.77;5.20;;;13.10;99.90;;;;;;5047187;28;20209;-87
2022/05/11 04:08:10;;;;;;;5.73;4.33;;;13.10;99.90;;;;;;5030686;28;20201;-89
2022/05/11 04:10:36;;;;;;;8.30;3.73;;;13.20;99.90;;;;;;5014709;28;20212;-87
2022/05/11 04:13:03;;;;;;;8.53;5.03;;;13.20;99.90;;;;;;5062350;28;20301;-86
2022/05/11 04:15:29;;;;;;;14.67;4.07;;;13.20;99.90;;;;;;5060854;28;20771;-90
2022/05/11 04:17:55;;;;;;;8.97;5.53;;;13.20;99.90;;;;;;5027969;28;20210;-89
2022/05/11 04:20:21;;;;;;;7.43;4.47;;;13.20;99.90;;;;;;5044657;28;20190;-89
2022/05/11 04:22:47;;;;;;;11.07;4.73;;;13.20;99.90;;;;;;5045361;28;20190;-85
2022/05/11 04:25:15;;;;;;;7.27;3.50;;;13.20;99.90;;;;;;5044998;28;20222;-84
2022/05/11 04:27:46;;;;;;;13.93;4.13;;;13.20;99.90;;;;;;5047861;28;20268;-84
2022/05/11 04:30:14;;;;;;;6.53;3.97;;;13.30;99.90;;;;;;5047784;28;20319;-83
2022/05/11 04:32:40;;;;;;;7.37;4.23;;;13.40;99.90;;;;;;5030044;28;20229;-85
2022/05/11 04:35:07;;;;;;;6.07;3.50;;;13.40;99.90;;;;;;5015963;28;20225;-85
2022/05/11 04:37:32;;;;;;;18.53;4.80;;;13.40;99.90;;;;;;5043951;28;20201;-87
2022/05/11 04:39:59;;;;;;;8.70;3.90;;;13.50;99.90;;;;;;5045438;28;20214;-83
2022/05/11 04:42:25;;;;;;;5.13;3.77;;;13.50;99.90;;;;;;5028803;28;20222;-82
2022/05/11 04:44:53;;;;;;;4.33;3.30;;;13.50;99.90;;;;;;5046326;28;20222;-84
2022/05/11 04:47:19;;;;;;;8.63;4.50;;;13.60;99.90;;;;;;5045155;28;20243;-86
2022/05/11 04:49:45;;;;;;;8.37;4.03;;;13.60;99.90;;;;;;5046252;28;20190;-83
2022/05/11 04:52:16;;;;;;;12.47;4.10;;;13.60;99.90;;;;;;5047025;28;20222;-84
2022/05/11 04:54:46;;;;;;;6.50;4.47;;;13.70;99.90;;;;;;5046241;28;20234;-85
2022/05/11 04:57:12;;;;;;;5.10;3.43;;;13.70;99.90;;;;;;5047277;28;20221;-83
2022/05/11 04:59:41;;;;;;;8.40;4.30;;;13.80;99.90;;;;;;5046309;28;20251;-84
2022/05/11 05:02:12;;;;;;;5.33;3.10;;;13.70;99.90;;;;;;5045542;28;20186;-86
2022/05/11 05:04:38;;;;;;;16.97;4.50;;;13.80;99.90;;;;;;5030197;28;20225;-84
2022/05/11 05:07:04;;;;;;;9.83;4.30;;;13.80;99.90;;;;;;5045497;28;20228;-88
2022/05/11 05:09:29;;;;;;;11.47;3.50;;;13.80;99.90;;;;;;5048972;28;20222;-87
2022/05/11 05:11:55;;;;;;;8.80;4.47;;;13.80;99.90;;;;;;5046605;28;20564;-89
2022/05/11 05:14:22;;;;;;;9.93;3.63;;;13.90;99.90;;;;;;5046748;28;20228;-84
2022/05/11 05:16:48;;;;;;;9.13;3.90;;;13.90;99.90;;;;;;5046144;28;20186;-85
2022/05/11 05:19:15;;;;;;;6.10;2.63;;;13.90;99.90;;;;;;5027718;28;20233;-92
2022/05/11 05:21:40;;;;;;;9.10;2.73;;;13.90;99.90;;;;;;5045364;28;20210;-88
2022/05/11 05:24:07;;;;;;;8.03;3.73;;;14.00;99.90;;;;;;5029223;28;20220;-88
2022/05/11 05:26:33;;;;;;;6.73;3.67;;;14.10;99.90;;;;;;5029239;28;20687;-93
2022/05/11 05:31:43;;;;;;;9.47;3.67;;;14.20;99.90;;;;;;5046659;28;20308;-87
2022/05/11 05:34:09;;;;;;;13.03;4.23;;;14.20;99.90;;;;;;5046322;28;20328;-87
2022/05/11 05:36:39;;;;;;;3.93;3.17;;;14.30;99.90;;;;;;5044265;28;20222;-90
2022/05/11 05:39:05;;;;;;;11.07;3.93;;;14.40;99.90;;;;;;5026930;28;20246;-85
2022/05/11 05:41:32;;;;;;;8.50;4.40;;;14.50;99.90;;;;;;5043663;28;20656;-88
2022/05/11 05:43:58;;;;;;;8.30;3.20;;;14.70;99.90;;;;;;5045961;28;20190;-85
2022/05/11 05:46:24;;;;;;;6.37;4.00;;;14.90;99.90;;;;;;5028035;28;20206;-84
2022/05/11 05:48:51;;;;;;;9.47;3.47;;;15.10;99.90;;;;;;5028765;28;20240;-89
2022/05/11 05:51:24;;;;;;;20.20;4.27;;;15.20;99.90;;;;;;5039413;28;20284;-89
2022/05/11 05:53:50;;;;;;;7.27;3.00;;;15.30;99.90;;;;;;5045826;28;21007;-86
2022/05/11 05:56:16;;;;;;;4.17;2.73;;;15.30;99.90;;;;;;5046100;28;21082;-86
2022/05/11 05:58:44;;;;;;;16.77;4.67;;;15.30;99.90;;;;;;5045932;28;20190;-88
2022/05/11 06:01:11;;;;;;;8.53;2.77;;;15.30;99.90;;;;;;5045232;28;20236;-87
2022/05/11 06:03:38;;;;;;;7.50;3.77;;;15.30;99.90;;;;;;5029112;28;20271;-87
2022/05/11 06:06:04;;;;;;;6.53;3.17;;;15.30;99.90;;;;;;5047401;28;20221;-87
2022/05/11 06:08:30;;;;;;;8.43;3.37;;;15.40;99.90;;;;;;5028679;28;20697;-88
2022/05/11 06:10:57;;;;;;;11.63;4.13;;;15.40;99.90;;;;;;5047243;28;20240;-87
2022/05/11 06:13:23;;;;;;;13.73;3.97;;;15.50;99.90;;;;;;5045891;28;20598;-88
2022/05/11 06:15:54;;;;;;;5.67;2.73;;;15.50;99.90;;;;;;5046645;28;21072;-89
2022/05/11 06:18:21;;;;;;;7.17;2.40;;;15.50;99.90;;;;;;5047152;28;20293;-90
2022/05/11 06:20:51;;;;;;;5.93;2.90;;;15.50;99.90;;;;;;5045713;28;20327;-84
2022/05/11 06:23:18;;;;;;;8.80;2.97;;;15.40;99.90;;;;;;5030320;28;20214;-85
2022/05/11 06:25:44;;;;;;;3.27;2.60;;;15.50;99.90;;;;;;5043462;28;20246;-85
2022/05/11 06:28:10;;;;;;;7.60;3.30;;;15.40;99.90;;;;;;5044428;28;20222;-89
2022/05/11 06:30:35;;;;;;;6.10;2.87;;;15.40;99.90;;;;;;5044442;28;20243;-85
2022/05/11 06:33:03;;;;;;;5.13;2.40;;;15.50;99.90;;;;;;5028062;28;20686;-91
2022/05/11 06:35:29;;;;;;;6.47;2.67;;;15.50;99.90;;;;;;5044599;28;20224;-93
2022/05/11 06:37:57;;;;;;;11.70;2.37;;;15.60;99.90;;;;;;5045452;28;20182;-91
2022/05/11 06:40:23;;;;;;;3.80;2.57;;;15.70;99.90;;;;;;5045903;28;20244;-86
2022/05/11 06:42:49;;;;;;;7.53;2.47;;;15.80;99.90;;;;;;5046675;28;20224;-87
2022/05/11 06:45:15;;;;;;;5.90;2.90;;;16.00;99.90;;;;;;5047021;28;20522;-87
2022/05/11 06:47:42;;;;;;;8.10;2.40;;;16.20;99.90;;;;;;5032423;28;20675;-88
2022/05/11 06:50:11;;;;;;;7.47;3.27;;;16.50;99.90;;;;;;5046848;28;20202;-88
2022/05/11 06:52:37;;;;;;;9.80;2.30;;;16.50;99.90;;;;;;5045878;28;20188;-86
2022/05/11 07:00:53;;;;;;;4.50;1.70;;;16.70;99.90;;;;;;5043597;28;20942;-87
2022/05/11 07:03:19;;;;;;;5.03;2.10;;;16.70;99.90;;;;;;5045175;28;20271;-85
2022/05/11 07:05:47;;;;;;;2.87;1.43;;;16.60;99.90;;;;;;5044100;28;21240;-85
2022/05/11 07:08:12;;;;;;;4.17;1.83;;;16.60;99.90;;;;;;5014983;28;20275;-84
2022/05/11 07:10:42;;;;;;;2.47;1.50;;;16.50;99.90;;;;;;5027702;28;20666;-83
2022/05/11 07:13:09;;;;;;;8.40;2.17;;;16.40;99.90;;;;;;5045988;28;20380;-86
2022/05/11 07:15:35;;;;;;;9.07;1.87;;;16.40;99.90;;;;;;5060113;28;20257;-89
2022/05/11 07:18:03;;;;;;;2.23;1.80;;;16.30;99.90;;;;;;5028733;28;20651;-88
2022/05/11 07:20:33;;;;;;;3.63;2.10;;;16.20;99.90;;;;;;5013844;28;20218;-87
2022/05/11 07:23:00;;;;;;;6.00;1.70;;;16.30;99.90;;;;;;5046994;28;20623;-88
2022/05/11 07:25:28;;;;;;;6.63;2.00;;;16.20;99.90;;;;;;5030442;28;20580;-88
2022/05/11 07:27:57;;;;;;;2.67;1.27;;;16.60;99.90;;;;;;5046670;28;20215;-88
2022/05/11 07:30:33;;;;;;;6.90;2.67;;;17.10;99.90;;;;;;5059980;28;20316;-85
2022/05/11 07:32:59;;;;;;;5.97;2.20;;;17.10;99.90;;;;;;5059155;28;20213;-86
2022/05/11 07:35:26;;;;;;;11.93;2.30;;;17.30;99.90;;;;;;5009491;28;20751;-85
2022/05/11 07:37:52;;;;;;;12.13;2.40;;;17.80;99.90;;;;;;5043503;28;20182;-89
2022/05/11 07:40:20;;;;;;;8.50;2.10;;;17.70;99.90;;;;;;5026241;28;20216;-84
2022/05/11 07:42:46;;;;;;;8.23;2.40;;;18.00;99.90;;;;;;5042666;28;20218;-85
2022/05/11 07:45:13;;;;;;;10.73;2.53;;;18.30;99.90;;;;;;5059049;28;20569;-90
2022/05/11 07:47:39;;;;;;;5.60;1.50;;;18.20;99.90;;;;;;5043658;28;20710;-86
2022/05/11 07:50:07;;;;;;;2.20;1.97;;;18.60;99.90;;;;;;5043955;28;20214;-89
2022/05/11 07:52:32;;;;;;;5.87;1.67;;;19.30;99.90;;;;;;5060557;28;20186;-87
2022/05/11 07:54:58;;;;;;;5.17;1.70;;;20.00;99.90;;;;;;5025657;28;20588;-86
2022/05/11 08:00:09;;;;;;;7.43;1.50;;;19.60;99.90;;;;;;5043396;28;20237;-87
2022/05/11 08:02:39;;;;;;;5.60;2.57;;;19.10;99.90;;;;;;5043183;28;20237;-87
2022/05/11 08:05:16;;;;;;;3.97;1.90;;;20.10;99.90;;;;;;5042580;28;20182;-85
2022/05/11 08:07:46;;;;;;;7.47;2.13;;;21.50;99.90;;;;;;5044071;28;20272;-88
2022/05/11 08:10:19;;;;;;;5.60;1.57;;;20.80;99.90;;;;;;5041400;28;20237;-87
2022/05/11 08:12:45;;;;;;;5.03;1.97;;;20.40;99.90;;;;;;5041297;28;20663;-86
2022/05/11 08:15:13;;;;;;;2.13;1.60;;;19.70;99.90;;;;;;5041410;28;20233;-88
2022/05/11 08:17:41;;;;;;;7.63;2.70;;;18.80;99.90;;;;;;5041996;28;20210;-87
2022/05/11 08:20:14;;;;;;;3.27;1.53;;;19.20;99.90;;;;;;5026429;28;20239;-86
2022/05/11 08:22:42;;;;;;;5.13;2.57;;;20.00;99.90;;;;;;5043220;28;20931;-87
2022/05/11 08:25:09;;;;;;;7.00;1.90;;;20.20;99.90;;;;;;5042464;28;20210;-86
2022/05/11 08:27:35;;;;;;;3.40;1.37;;;20.20;99.90;;;;;;5042212;28;20259;-85
2022/05/11 08:35:30;;;;;;;2.83;1.47;;;20.00;99.90;;;;;;5028353;28;20663;-88
2022/05/11 08:37:56;;;;;;;4.43;1.70;;;20.80;99.90;;;;;;5010351;28;20280;-87
2022/05/11 08:40:34;;;;;;;5.13;1.63;;;22.40;99.90;;;;;;5042227;28;20248;-87
2022/05/11 08:43:02;;;;;;;4.50;2.10;;;23.60;99.90;;;;;;5041952;28;20218;-86
2022/05/11 08:46:07;;;;;;;4.13;1.73;;;24.80;99.90;;;;;;5042334;28;20230;-88
2022/05/11 08:48:32;;;;;;;4.87;1.70;;;23.40;99.90;;;;;;5042153;28;20637;-86
2022/05/11 08:51:00;;;;;;;2.57;1.27;;;22.50;99.90;;;;;;5046847;28;20238;-87
2022/05/11 08:53:31;;;;;;;2.50;1.13;;;21.20;99.90;;;;;;5045912;28;20210;-89
2022/05/11 08:55:59;;;;;;;4.90;1.30;;;20.80;99.90;;;;;;5047113;28;20240;-87
2022/05/11 08:58:40;;;;;;;4.73;1.30;;;22.20;99.90;;;;;;5046834;28;20225;-89
2022/05/11 09:01:11;;;;;;;3.50;1.50;;;23.00;99.90;;;;;;5047130;28;20217;-87
2022/05/11 09:03:41;;;;;;;2.53;1.08;;;24.50;99.90;;;;;;5047071;28;20217;-87
2022/05/11 09:06:16;;;;;;;3.47;1.20;;;25.10;99.90;;;;;;5045844;28;20245;-85
2022/05/11 09:08:42;;;;;;;3.05;1.50;;;23.60;99.90;;;;;;5045480;28;21000;-88
2022/05/11 09:11:15;;;;;;;3.58;1.30;;;24.10;99.90;;;;;;5046213;28;20208;-86
2022/05/11 09:13:44;;;;;;;4.45;1.45;;;24.30;99.90;;;;;;5045788;28;20657;-86
2022/05/11 09:16:36;;;;;;;7.70;1.52;;;24.10;99.90;;;;;;5031249;28;20304;-88
2022/05/11 09:19:18;;;;;;;2.53;1.52;;;25.90;99.90;;;;;;5040998;28;20221;-87
2022/05/11 09:21:53;;;;;;;2.30;1.50;;;25.20;99.90;;;;;;5046233;28;20698;-86
2022/05/11 09:24:21;;;;;;;6.28;1.77;;;24.30;99.90;;;;;;5044511;28;20245;-87
2022/05/11 09:27:01;;;;;;;3.20;1.63;;;24.50;99.90;;;;;;5046533;28;20233;-88
2022/05/11 09:29:37;;;;;;;3.47;1.20;;;25.60;99.90;;;;;;5045961;28;21054;-86
2022/05/11 09:32:32;;;;;;;2.97;1.10;;;25.40;99.90;;;;;;5046533;28;20201;-85
2022/05/11 09:35:19;;;;;;;4.30;1.70;;;23.90;99.90;;;;;;5045539;28;20196;-86
2022/05/11 09:37:54;;;;;;;7.13;1.60;;;24.40;99.90;;;;;;5046562;28;20218;-91
2022/05/11 09:40:21;;;;;;;9.00;1.45;;;25.10;99.90;;;;;;5045381;28;20686;-87
2022/05/11 09:42:49;;;;;;;5.90;1.23;;;24.90;99.90;;;;;;5044788;28;20620;-87
2022/05/11 09:45:36;;;;;;;3.08;1.30;;;25.90;99.90;;;;;;5044253;28;20213;-86
2022/05/11 09:48:08;;;;;;;5.38;1.20;;;23.60;99.90;;;;;;5035197;28;20221;-87
2022/05/11 09:50:34;;;;;;;5.07;1.60;;;24.60;99.90;;;;;;5030494;28;20235;-88
2022/05/11 09:53:22;;;;;;;4.93;1.25;;;24.90;99.90;;;;;;5044989;28;20190;-90
2022/05/11 09:55:49;;;;;;;2.80;1.52;;;23.80;99.90;;;;;;5044146;28;20225;-92
2022/05/11 09:58:28;;;;;;;5.90;1.08;;;23.40;99.90;;;;;;5044558;28;20665;-88
2022/05/11 10:01:13;;;;;;;6.22;1.65;;;22.40;99.90;;;;;;5046166;28;20209;-89
2022/05/11 10:04:12;;;;;;;7.60;1.92;;;22.70;99.90;;;;;;5045166;28;20213;-84
2022/05/11 10:06:53;;;;;;;5.28;1.50;;;22.50;99.90;;;;;;4989597;28;20283;-86
2022/05/11 10:09:41;;;;;;;2.90;1.20;;;21.60;99.90;;;;;;5044943;28;20224;-86
2022/05/11 10:12:17;;;;;;;2.10;1.42;;;22.30;99.90;;;;;;5045312;28;20230;-87
2022/05/11 10:23:10;;;;;;;2.60;1.50;;;20.10;99.90;;;;;;5044793;28;20182;-86
2022/05/11 10:25:40;;;;;;;4.83;1.40;;;20.30;99.90;;;;;;5045460;28;20659;-88
2022/05/11 10:28:32;;;;;;;1.90;1.00;;;21.10;99.90;;;;;;5044881;28;20312;-86
2022/05/11 10:31:33;;;;;;;6.57;1.67;;;22.00;99.90;;;;;;5044803;28;20230;-86
2022/05/11 10:34:40;;;;;;;1.60;1.17;;;21.80;99.90;;;;;;5045039;28;20225;-89
2022/05/11 10:37:13;;;;;;;0.97;0.90;;;21.40;99.90;;;;;;5024833;28;20213;-88
2022/05/11 10:39:45;;;;;;;4.43;1.17;;;20.80;99.90;;;;;;5044959;28;20567;-88
2022/05/11 10:42:35;;;;;;;5.43;1.10;;;20.20;99.90;;;;;;5044641;28;20210;-86
2022/05/11 10:45:23;;;;;;;3.47;1.13;;;20.50;99.90;;;;;;5044013;28;20230;-87
2022/05/11 10:48:05;;;;;;;1.70;0.80;;;21.50;99.90;;;;;;5043806;28;20312;-85
2022/05/11 10:50:58;;;;;;;3.27;1.10;;;20.80;99.90;;;;;;5044528;28;20245;-89
2022/05/11 10:53:38;;;;;;;0.70;0.70;;;21.10;99.90;;;;;;5044046;28;20201;-87
2022/05/11 10:56:12;;;;;;;2.70;0.70;;;21.10;99.90;;;;;;5024100;28;20260;-85
2022/05/11 10:58:57;;;;;;;4.10;1.13;;;21.60;99.90;;;;;;5024789;28;20197;-86
2022/05/11 11:01:25;;;;;;;1.37;0.93;;;22.00;99.90;;;;;;5022367;28;20254;-86
2022/05/11 11:04:20;;;;;;;5.60;1.30;;;22.00;99.90;;;;;;5023935;28;20210;-87
2022/05/11 11:07:11;;;;;;;6.43;1.77;;;21.70;99.90;;;;;;5023925;28;20206;-87
2022/05/11 11:09:55;;;;;;;3.97;1.17;;;21.60;99.90;;;;;;5023508;28;20222;-88
2022/05/11 11:12:44;;;;;;;4.00;1.03;;;22.70;99.90;;;;;;5023165;28;20237;-86
2022/05/11 11:15:13;;;;;;;3.63;1.02;;;22.70;99.90;;;;;;5038540;28;20309;-87
2022/05/11 11:17:42;;;;;;;4.43;0.87;;;22.50;99.90;;;;;;5024510;28;21315;-88
2022/05/11 11:20:10;;;;;;;4.63;1.55;;;21.80;99.90;;;;;;5023298;28;20186;-85
2022/05/11 11:23:09;;;;;;;1.87;0.73;;;21.50;99.90;;;;;;5023542;28;20233;-86
2022/05/11 11:25:56;;;;;;;1.30;0.87;;;20.70;99.90;;;;;;5023197;28;20284;-85
2022/05/11 11:28:38;;;;;;;2.60;1.40;;;20.70;99.90;;;;;;5021783;28;21103;-86
2022/05/11 11:31:04;;;;;;;2.70;1.00;;;21.30;99.90;;;;;;5021830;28;20755;-87
2022/05/11 11:33:35;;;;;;;3.73;1.70;;;22.00;99.90;;;;;;5021798;28;20734;-86
2022/05/11 11:36:05;;;;;;;3.97;1.00;;;22.00;99.90;;;;;;5022869;28;20582;-86
2022/05/11 11:38:40;;;;;;;7.97;1.83;;;21.30;99.90;;;;;;5019467;28;20218;-88
2022/05/11 11:41:24;;;;;;;2.60;0.80;;;20.70;99.90;;;;;;5020117;28;20217;-86
2022/05/11 11:43:50;;;;;;;5.10;1.30;;;20.10;99.90;;;;;;5021007;28;20209;-87
2022/05/11 11:46:35;;;;;;;1.63;1.50;;;20.00;99.90;;;;;;5022861;28;20680;-88
2022/05/11 11:49:18;;;;;;;3.40;1.43;;;20.30;99.90;;;;;;5022957;28;20230;-86
2022/05/11 11:51:52;;;;;;;9.80;2.17;;;20.30;99.90;;;;;;5021312;28;20253;-89
2022/05/11 11:54:27;;;;;;;4.90;1.23;;;20.10;99.90;;;;;;5030594;28;20276;-86
2022/05/11 11:56:54;;;;;;;3.73;1.53;;;19.80;99.90;;;;;;5040627;28;20229;-85
2022/05/11 11:59:23;;;;;;;2.47;1.20;;;19.50;99.90;;;;;;5023804;28;20634;-85
2022/05/11 12:01:51;;;;;;;6.23;1.53;;;19.50;99.90;;;;;;5041735;28;20197;-85
2022/05/11 12:04:58;;;;;;;10.13;2.50;;;19.40;99.90;;;;;;5043121;28;20217;-84
2022/05/11 12:16:18;;;;;;;3.50;1.27;;;19.40;99.90;;;;;;5043097;28;20210;-89
2022/05/11 12:18:45;;;;;;;2.90;1.10;;;19.80;99.90;;;;;;5024718;28;20601;-87
2022/05/11 12:21:22;;;;;;;2.80;1.50;;;19.60;99.90;;;;;;5033832;28;20258;-86
2022/05/11 12:23:50;;;;;;;6.87;2.43;;;19.60;99.90;;;;;;5041744;28;20221;-87
2022/05/11 12:26:35;;;;;;;3.70;1.33;;;19.80;99.90;;;;;;5046375;28;20204;-84
2022/05/11 12:31:56;;;;;;;4.40;2.20;;;19.60;99.90;;;;;;5048096;28;20682;-87
2022/05/11 12:34:24;;;;;;;3.87;1.67;;;19.60;99.90;;;;;;5045902;28;20253;-85
2022/05/11 12:36:52;;;;;;;5.63;1.47;;;19.60;99.90;;;;;;5046585;28;20210;-86
2022/05/11 12:39:32;;;;;;;4.23;1.93;;;19.30;99.90;;;;;;5028597;28;20210;-85
2022/05/11 12:41:58;;;;;;;6.83;1.67;;;19.30;99.90;;;;;;5045466;28;20210;-86
2022/05/11 12:44:31;;;;;;;8.13;2.03;;;19.00;99.90;;;;;;5045430;28;20226;-86
2022/05/11 12:46:59;;;;;;;1.37;1.10;;;18.80;99.90;;;;;;5044984;28;20574;-85
2022/05/11 12:49:26;;;;;;;4.33;1.63;;;18.50;99.90;;;;;;5046536;28;20560;-87
2022/05/11 12:51:55;;;;;;;12.73;2.97;;;18.40;99.90;;;;;;5045442;28;20540;-85
2022/05/11 12:54:27;;;;;;;5.13;2.10;;;18.50;99.90;;;;;;5044859;28;20702;-87
2022/05/11 12:56:59;;;;;;;4.60;2.73;;;18.80;99.90;;;;;;5045604;28;20229;-87
2022/05/11 12:59:28;;;;;;;9.23;3.23;;;18.60;99.90;;;;;;5046835;28;20218;-84
2022/05/11 13:02:14;;;;;;;10.10;2.33;;;18.80;99.90;;;;;;5045935;28;20311;-89
2022/05/11 13:04:59;;;;;;;8.13;1.90;;;19.10;99.90;;;;;;5047011;28;20206;-85
2022/05/11 13:08:02;;;;;;;22.70;20.90;;;18.80;99.90;;;;;;5046541;28;20726;-85
2022/05/11 13:10:35;;;;;;;9.13;2.20;;;18.80;99.90;;;;;;5045217;28;20229;-88
2022/05/11 13:13:07;;;;;;;12.40;2.80;;;18.70;99.90;;;;;;5045224;28;20241;-85
2022/05/11 13:15:36;;;;;;;6.77;2.37;;;18.80;99.90;;;;;;5046861;28;20236;-82
2022/05/11 13:18:04;;;;;;;4.07;2.33;;;19.00;99.90;;;;;;5060943;28;20230;-85
2022/05/11 13:20:41;;;;;;;5.10;2.30;;;18.60;99.90;;;;;;5028834;28;20220;-84
2022/05/11 13:23:47;;;;;;;8.33;2.83;;;18.60;99.90;;;;;;5046724;28;20267;-84
2022/05/11 13:26:38;;;;;;;7.00;2.97;;;18.70;99.90;;;;;;5045527;28;20730;-93
2022/05/11 13:29:26;;;;;;;12.03;2.03;;;18.90;99.90;;;;;;5037807;28;20228;-93
2022/05/11 13:32:11;;;;;;;9.67;2.47;;;18.80;99.90;;;;;;5046433;28;20667;-93
2022/05/11 13:34:39;;;;;;;3.20;2.70;;;18.70;99.90;;;;;;5046944;28;20217;-93
2022/05/11 13:37:25;;;;;;;10.57;2.97;;;18.60;99.90;;;;;;5045181;28;20205;-87
2022/05/11 13:39:51;;;;;;;10.33;2.87;;;18.90;99.90;;;;;;5043451;28;20212;-89
2022/05/11 13:42:28;;;;;;;6.07;2.60;;;19.30;99.90;;;;;;5043659;28;20224;-87
2022/05/11 13:45:00;;;;;;;2.93;2.30;;;19.20;99.90;;;;;;5034262;28;20221;-89
2022/05/11 13:50:35;;;;;;;5.23;2.30;;;18.70;99.90;;;;;;5043360;28;20237;-87
2022/05/11 13:53:12;;;;;;;8.97;3.27;;;18.80;99.90;;;;;;5042810;28;20647;-87